sensor_id;sensor_type;location;lat;lon;timestamp;pressure;altitude;pressure_sealevel;temperature;humidity
49915;BME280;35806;47.958;13.158;2024-01-30T00:02:31;96010.49;;;-1.06;51.48
49915;BME280;35806;47.958;13.158;2024-01-30T00:04:58;96011.73;;;-1.52;52.61
49915;BME280;35806;47.958;13.158;2024-01-30T00:07:26;96015.93;;;-2.16;53.79
49915;BME280;35806;47.958;13.158;2024-01-30T00:09:53;96009.44;;;-1.65;53.32
49915;BME280;35806;47.958;13.158;2024-01-30T00:12:21;96008.68;;;-1.58;53.44
49915;BME280;35806;47.958;13.158;2024-01-30T00:14:47;96007.21;;;-0.62;50.95
49915;BME280;35806;47.958;13.158;2024-01-30T00:17:14;96010.71;;;-1.54;52.25
49915;BME280;35806;47.958;13.158;2024-01-30T00:19:41;96007.41;;;-1.84;52.58
49915;BME280;35806;47.958;13.158;2024-01-30T00:22:08;96012.49;;;-1.19;50.99
49915;BME280;35806;47.958;13.158;2024-01-30T00:24:35;96011.22;;;-1.35;51.81
49915;BME280;35806;47.958;13.158;2024-01-30T00:27:03;96009.91;;;-0.62;50.04
49915;BME280;35806;47.958;13.158;2024-01-30T00:29:30;96016.73;;;-1.14;50.12
49915;BME280;35806;47.958;13.158;2024-01-30T00:31:57;96017.35;;;-1.07;49.55
49915;BME280;35806;47.958;13.158;2024-01-30T00:34:30;96020.26;;;-1.24;50.16
49915;BME280;35806;47.958;13.158;2024-01-30T00:36:57;96020.18;;;-1.05;50.13
49915;BME280;35806;47.958;13.158;2024-01-30T00:39:25;96018.90;;;-0.53;49.36
49915;BME280;35806;47.958;13.158;2024-01-30T00:41:52;96016.46;;;-1.87;50.67
49915;BME280;35806;47.958;13.158;2024-01-30T00:44:19;96016.87;;;-1.49;51.34
49915;BME280;35806;47.958;13.158;2024-01-30T00:46:46;96022.92;;;-1.58;51.35
49915;BME280;35806;47.958;13.158;2024-01-30T00:49:14;96020.00;;;-1.69;51.07
49915;BME280;35806;47.958;13.158;2024-01-30T00:51:42;96021.43;;;-1.56;50.97
49915;BME280;35806;47.958;13.158;2024-01-30T00:54:09;96019.46;;;-1.54;51.18
49915;BME280;35806;47.958;13.158;2024-01-30T00:56:36;96023.16;;;-1.28;51.15
49915;BME280;35806;47.958;13.158;2024-01-30T00:59:03;96025.18;;;-1.52;51.71
49915;BME280;35806;47.958;13.158;2024-01-30T01:01:31;96027.93;;;-1.39;52.00
49915;BME280;35806;47.958;13.158;2024-01-30T01:03:58;96031.58;;;-1.00;51.81
49915;BME280;35806;47.958;13.158;2024-01-30T01:06:26;96028.23;;;-1.56;52.28
49915;BME280;35806;47.958;13.158;2024-01-30T01:08:53;96030.34;;;-1.78;51.94
49915;BME280;35806;47.958;13.158;2024-01-30T01:11:21;96028.79;;;-1.41;51.37
49915;BME280;35806;47.958;13.158;2024-01-30T01:13:48;96030.99;;;-0.95;50.99
49915;BME280;35806;47.958;13.158;2024-01-30T01:16:15;96032.04;;;-1.88;51.66
49915;BME280;35806;47.958;13.158;2024-01-30T01:18:42;96033.78;;;-1.50;51.77
49915;BME280;35806;47.958;13.158;2024-01-30T01:21:10;96033.90;;;-1.98;52.15
49915;BME280;35806;47.958;13.158;2024-01-30T01:23:37;96037.32;;;-2.20;51.84
49915;BME280;35806;47.958;13.158;2024-01-30T01:26:04;96040.10;;;-1.81;52.42
49915;BME280;35806;47.958;13.158;2024-01-30T01:28:32;96039.85;;;-1.87;51.19
49915;BME280;35806;47.958;13.158;2024-01-30T01:30:59;96043.25;;;-1.90;52.05
49915;BME280;35806;47.958;13.158;2024-01-30T01:33:27;96043.23;;;-1.75;51.89
49915;BME280;35806;47.958;13.158;2024-01-30T01:35:54;96039.71;;;-2.21;52.81
49915;BME280;35806;47.958;13.158;2024-01-30T01:38:21;96042.45;;;-1.79;51.66
49915;BME280;35806;47.958;13.158;2024-01-30T01:40:49;96040.94;;;-1.08;51.52
49915;BME280;35806;47.958;13.158;2024-01-30T01:43:16;96041.41;;;-1.93;52.40
49915;BME280;35806;47.958;13.158;2024-01-30T01:45:43;96037.88;;;-1.80;51.88
49915;BME280;35806;47.958;13.158;2024-01-30T01:48:10;96036.70;;;-1.20;51.26
49915;BME280;35806;47.958;13.158;2024-01-30T01:50:39;96035.05;;;-1.82;51.74
49915;BME280;35806;47.958;13.158;2024-01-30T01:53:08;96038.82;;;-2.03;52.57
49915;BME280;35806;47.958;13.158;2024-01-30T01:55:36;96034.69;;;-1.18;50.88
49915;BME280;35806;47.958;13.158;2024-01-30T01:58:04;96037.61;;;-1.93;52.44
49915;BME280;35806;47.958;13.158;2024-01-30T02:00:32;96036.88;;;-2.29;52.68
49915;BME280;35806;47.958;13.158;2024-01-30T02:03:00;96034.57;;;-2.03;52.40
49915;BME280;35806;47.958;13.158;2024-01-30T02:05:29;96037.04;;;-2.22;52.01
49915;BME280;35806;47.958;13.158;2024-01-30T02:07:56;96034.73;;;-2.17;52.35
49915;BME280;35806;47.958;13.158;2024-01-30T02:10:23;96036.04;;;-2.01;51.86
49915;BME280;35806;47.958;13.158;2024-01-30T02:12:51;96036.01;;;-1.99;51.85
49915;BME280;35806;47.958;13.158;2024-01-30T02:15:19;96033.98;;;-2.23;52.13
49915;BME280;35806;47.958;13.158;2024-01-30T02:17:46;96037.19;;;-2.47;52.32
49915;BME280;35806;47.958;13.158;2024-01-30T02:20:13;96040.31;;;-2.36;52.31
49915;BME280;35806;47.958;13.158;2024-01-30T02:22:41;96037.94;;;-2.39;52.09
49915;BME280;35806;47.958;13.158;2024-01-30T02:25:08;96042.49;;;-2.41;52.53
49915;BME280;35806;47.958;13.158;2024-01-30T02:27:36;96042.34;;;-2.47;52.46
49915;BME280;35806;47.958;13.158;2024-01-30T02:30:05;96041.93;;;-2.38;52.25
49915;BME280;35806;47.958;13.158;2024-01-30T02:32:37;96041.21;;;-2.20;52.05
49915;BME280;35806;47.958;13.158;2024-01-30T02:35:05;96043.07;;;-2.38;52.23
49915;BME280;35806;47.958;13.158;2024-01-30T02:37:33;96041.40;;;-2.19;52.06
49915;BME280;35806;47.958;13.158;2024-01-30T02:40:00;96038.02;;;-2.11;51.44
49915;BME280;35806;47.958;13.158;2024-01-30T02:42:28;96042.50;;;-1.95;51.49
49915;BME280;35806;47.958;13.158;2024-01-30T02:44:55;96043.22;;;-2.44;52.07
49915;BME280;35806;47.958;13.158;2024-01-30T02:47:23;96043.12;;;-2.60;52.51
49915;BME280;35806;47.958;13.158;2024-01-30T02:49:50;96043.85;;;-2.76;52.46
49915;BME280;35806;47.958;13.158;2024-01-30T02:52:17;96039.89;;;-2.54;52.66
49915;BME280;35806;47.958;13.158;2024-01-30T02:54:45;96036.18;;;-1.87;51.65
49915;BME280;35806;47.958;13.158;2024-01-30T02:57:12;96037.87;;;-2.49;52.49
49915;BME280;35806;47.958;13.158;2024-01-30T02:59:40;96032.04;;;-2.28;52.05
49915;BME280;35806;47.958;13.158;2024-01-30T03:02:07;96036.81;;;-1.72;51.23
49915;BME280;35806;47.958;13.158;2024-01-30T03:04:34;96032.62;;;-0.87;49.04
49915;BME280;35806;47.958;13.158;2024-01-30T03:07:01;96029.09;;;-1.84;50.98
49915;BME280;35806;47.958;13.158;2024-01-30T03:09:29;96029.96;;;-2.43;51.40
49915;BME280;35806;47.958;13.158;2024-01-30T03:11:56;96028.87;;;-2.13;51.78
49915;BME280;35806;47.958;13.158;2024-01-30T03:14:23;96027.32;;;-2.14;52.19
49915;BME280;35806;47.958;13.158;2024-01-30T03:16:50;96026.83;;;-1.69;51.34
49915;BME280;35806;47.958;13.158;2024-01-30T03:19:18;96025.86;;;-2.32;52.07
49915;BME280;35806;47.958;13.158;2024-01-30T03:21:46;96024.55;;;-2.05;51.97
49915;BME280;35806;47.958;13.158;2024-01-30T03:24:13;96023.65;;;-1.82;51.27
49915;BME280;35806;47.958;13.158;2024-01-30T03:26:41;96025.11;;;-1.79;51.01
49915;BME280;35806;47.958;13.158;2024-01-30T03:29:08;96027.11;;;-2.07;51.92
49915;BME280;35806;47.958;13.158;2024-01-30T03:31:35;96025.82;;;-2.01;52.04
49915;BME280;35806;47.958;13.158;2024-01-30T03:34:03;96027.23;;;-1.91;51.98
49915;BME280;35806;47.958;13.158;2024-01-30T03:36:30;96024.66;;;-1.62;51.32
49915;BME280;35806;47.958;13.158;2024-01-30T03:38:58;96022.90;;;-1.30;50.77
49915;BME280;35806;47.958;13.158;2024-01-30T03:41:26;96022.95;;;-1.45;50.42
49915;BME280;35806;47.958;13.158;2024-01-30T03:43:54;96022.57;;;-0.99;49.68
49915;BME280;35806;47.958;13.158;2024-01-30T03:46:21;96018.34;;;-0.43;47.00
49915;BME280;35806;47.958;13.158;2024-01-30T03:48:49;96016.81;;;-0.46;46.96
49915;BME280;35806;47.958;13.158;2024-01-30T03:51:16;96016.89;;;-0.76;45.70
49915;BME280;35806;47.958;13.158;2024-01-30T03:53:44;96009.49;;;0.22;44.43
49915;BME280;35806;47.958;13.158;2024-01-30T03:56:12;96010.29;;;0.67;44.28
49915;BME280;35806;47.958;13.158;2024-01-30T03:58:39;96007.91;;;0.19;42.99
49915;BME280;35806;47.958;13.158;2024-01-30T04:01:08;96010.44;;;0.82;41.94
49915;BME280;35806;47.958;13.158;2024-01-30T04:03:39;96008.42;;;0.82;42.05
49915;BME280;35806;47.958;13.158;2024-01-30T04:06:06;96009.87;;;0.79;41.39
49915;BME280;35806;47.958;13.158;2024-01-30T04:08:34;96008.40;;;0.84;42.73
49915;BME280;35806;47.958;13.158;2024-01-30T04:11:04;96009.22;;;0.49;43.39
49915;BME280;35806;47.958;13.158;2024-01-30T04:13:31;96007.23;;;-0.94;44.93
49915;BME280;35806;47.958;13.158;2024-01-30T04:15:59;96005.06;;;-0.36;44.03
49915;BME280;35806;47.958;13.158;2024-01-30T04:18:28;96006.36;;;0.63;42.22
49915;BME280;35806;47.958;13.158;2024-01-30T04:20:56;96008.69;;;0.93;41.81
49915;BME280;35806;47.958;13.158;2024-01-30T04:23:23;96008.18;;;0.84;41.78
49915;BME280;35806;47.958;13.158;2024-01-30T04:25:51;96007.55;;;0.70;41.98
49915;BME280;35806;47.958;13.158;2024-01-30T04:28:18;96005.96;;;0.80;41.77
49915;BME280;35806;47.958;13.158;2024-01-30T04:30:46;96006.74;;;0.88;41.63
49915;BME280;35806;47.958;13.158;2024-01-30T04:33:13;96010.82;;;0.89;42.50
49915;BME280;35806;47.958;13.158;2024-01-30T04:35:40;96012.14;;;0.34;42.70
49915;BME280;35806;47.958;13.158;2024-01-30T04:38:08;96013.39;;;0.69;42.23
49915;BME280;35806;47.958;13.158;2024-01-30T04:40:35;96012.23;;;0.66;41.73
49915;BME280;35806;47.958;13.158;2024-01-30T04:43:07;96015.78;;;0.79;40.99
49915;BME280;35806;47.958;13.158;2024-01-30T04:45:35;96015.01;;;0.46;41.40
49915;BME280;35806;47.958;13.158;2024-01-30T04:48:03;96016.02;;;0.36;42.17
49915;BME280;35806;47.958;13.158;2024-01-30T04:50:31;96016.93;;;0.89;41.54
49915;BME280;35806;47.958;13.158;2024-01-30T04:52:58;96015.77;;;0.73;42.30
49915;BME280;35806;47.958;13.158;2024-01-30T04:55:27;96015.28;;;0.60;41.85
49915;BME280;35806;47.958;13.158;2024-01-30T04:57:54;96015.47;;;0.83;41.56
49915;BME280;35806;47.958;13.158;2024-01-30T05:00:21;96019.07;;;0.88;40.96
49915;BME280;35806;47.958;13.158;2024-01-30T05:02:49;96019.00;;;0.75;41.58
49915;BME280;35806;47.958;13.158;2024-01-30T05:05:17;96022.99;;;0.07;42.43
49915;BME280;35806;47.958;13.158;2024-01-30T05:07:45;96022.21;;;-0.57;44.57
49915;BME280;35806;47.958;13.158;2024-01-30T05:10:13;96021.91;;;0.21;43.12
49915;BME280;35806;47.958;13.158;2024-01-30T05:12:40;96026.20;;;0.47;42.19
49915;BME280;35806;47.958;13.158;2024-01-30T05:15:13;96024.65;;;-0.03;43.73
49915;BME280;35806;47.958;13.158;2024-01-30T05:17:41;96026.05;;;0.58;42.82
49915;BME280;35806;47.958;13.158;2024-01-30T05:20:09;96029.54;;;0.91;41.73
49915;BME280;35806;47.958;13.158;2024-01-30T05:22:37;96030.36;;;0.37;41.95
49915;BME280;35806;47.958;13.158;2024-01-30T05:25:05;96028.41;;;-0.30;41.54
49915;BME280;35806;47.958;13.158;2024-01-30T05:27:32;96027.62;;;0.48;40.17
49915;BME280;35806;47.958;13.158;2024-01-30T05:30:00;96029.88;;;1.16;39.87
49915;BME280;35806;47.958;13.158;2024-01-30T05:32:28;96031.82;;;0.74;38.73
49915;BME280;35806;47.958;13.158;2024-01-30T05:34:55;96033.15;;;1.63;37.48
49915;BME280;35806;47.958;13.158;2024-01-30T05:37:28;96033.30;;;1.00;39.24
49915;BME280;35806;47.958;13.158;2024-01-30T05:39:55;96031.38;;;0.73;37.82
49915;BME280;35806;47.958;13.158;2024-01-30T05:42:28;96031.40;;;1.32;37.49
49915;BME280;35806;47.958;13.158;2024-01-30T05:44:56;96033.30;;;1.36;37.39
49915;BME280;35806;47.958;13.158;2024-01-30T05:47:23;96032.93;;;1.25;36.79
49915;BME280;35806;47.958;13.158;2024-01-30T05:49:51;96031.89;;;1.17;37.43
49915;BME280;35806;47.958;13.158;2024-01-30T05:52:19;96035.29;;;1.29;37.77
49915;BME280;35806;47.958;13.158;2024-01-30T05:54:46;96033.53;;;0.97;37.88
49915;BME280;35806;47.958;13.158;2024-01-30T05:57:14;96035.64;;;0.76;39.08
49915;BME280;35806;47.958;13.158;2024-01-30T05:59:42;96037.01;;;0.41;39.24
49915;BME280;35806;47.958;13.158;2024-01-30T06:02:10;96036.03;;;0.63;38.91
49915;BME280;35806;47.958;13.158;2024-01-30T06:04:38;96034.51;;;0.11;39.60
49915;BME280;35806;47.958;13.158;2024-01-30T06:07:06;96034.67;;;1.20;38.78
49915;BME280;35806;47.958;13.158;2024-01-30T06:09:43;96036.74;;;0.84;37.98
49915;BME280;35806;47.958;13.158;2024-01-30T06:12:10;96037.46;;;0.89;38.96
49915;BME280;35806;47.958;13.158;2024-01-30T06:14:38;96037.90;;;-0.34;41.56
49915;BME280;35806;47.958;13.158;2024-01-30T06:17:06;96037.37;;;0.47;39.64
49915;BME280;35806;47.958;13.158;2024-01-30T06:19:33;96035.48;;;0.61;39.78
49915;BME280;35806;47.958;13.158;2024-01-30T06:22:00;96036.92;;;0.14;39.73
49915;BME280;35806;47.958;13.158;2024-01-30T06:24:28;96039.05;;;0.63;39.70
49915;BME280;35806;47.958;13.158;2024-01-30T06:26:55;96038.04;;;0.45;39.62
49915;BME280;35806;47.958;13.158;2024-01-30T06:29:23;96041.25;;;1.07;38.17
49915;BME280;35806;47.958;13.158;2024-01-30T06:31:51;96039.25;;;0.60;39.41
49915;BME280;35806;47.958;13.158;2024-01-30T06:34:18;96040.31;;;0.31;39.42
49915;BME280;35806;47.958;13.158;2024-01-30T06:36:46;96042.24;;;0.32;39.22
49915;BME280;35806;47.958;13.158;2024-01-30T06:39:18;96041.41;;;0.25;40.26
49915;BME280;35806;47.958;13.158;2024-01-30T06:41:45;96042.99;;;-0.23;40.67
49915;BME280;35806;47.958;13.158;2024-01-30T06:44:13;96044.96;;;0.21;40.25
49915;BME280;35806;47.958;13.158;2024-01-30T06:46:41;96046.91;;;0.08;40.72
49915;BME280;35806;47.958;13.158;2024-01-30T06:49:09;96045.35;;;-0.12;41.09
49915;BME280;35806;47.958;13.158;2024-01-30T06:51:36;96043.53;;;-0.21;40.82
49915;BME280;35806;47.958;13.158;2024-01-30T06:54:04;96044.19;;;-0.04;41.16
49915;BME280;35806;47.958;13.158;2024-01-30T06:56:32;96044.13;;;-0.19;40.88
49915;BME280;35806;47.958;13.158;2024-01-30T06:58:59;96049.38;;;-0.35;41.57
49915;BME280;35806;47.958;13.158;2024-01-30T07:01:35;96053.49;;;-0.35;41.83
49915;BME280;35806;47.958;13.158;2024-01-30T07:04:03;96054.20;;;-0.07;41.84
49915;BME280;35806;47.958;13.158;2024-01-30T07:06:30;96054.61;;;0.02;41.47
49915;BME280;35806;47.958;13.158;2024-01-30T07:08:58;96054.53;;;-0.09;42.37
49915;BME280;35806;47.958;13.158;2024-01-30T07:11:31;96053.63;;;0.16;42.21
49915;BME280;35806;47.958;13.158;2024-01-30T07:13:59;96055.80;;;0.52;41.80
49915;BME280;35806;47.958;13.158;2024-01-30T07:16:26;96057.88;;;0.65;41.34
49915;BME280;35806;47.958;13.158;2024-01-30T07:18:54;96059.79;;;0.95;41.29
49915;BME280;35806;47.958;13.158;2024-01-30T07:21:22;96059.88;;;0.63;41.68
49915;BME280;35806;47.958;13.158;2024-01-30T07:23:49;96061.25;;;0.94;41.98
49915;BME280;35806;47.958;13.158;2024-01-30T07:26:17;96066.45;;;1.35;41.91
49915;BME280;35806;47.958;13.158;2024-01-30T07:28:45;96072.25;;;1.53;41.54
49915;BME280;35806;47.958;13.158;2024-01-30T07:31:13;96072.84;;;1.70;41.35
49915;BME280;35806;47.958;13.158;2024-01-30T07:33:40;96073.07;;;1.70;41.56
49915;BME280;35806;47.958;13.158;2024-01-30T07:36:08;96076.14;;;2.24;41.03
49915;BME280;35806;47.958;13.158;2024-01-30T07:38:36;96074.02;;;2.09;39.88
49915;BME280;35806;47.958;13.158;2024-01-30T07:41:03;96074.62;;;2.17;39.91
49915;BME280;35806;47.958;13.158;2024-01-30T07:43:31;96077.74;;;2.21;40.20
49915;BME280;35806;47.958;13.158;2024-01-30T07:45:58;96076.25;;;3.05;38.11
49915;BME280;35806;47.958;13.158;2024-01-30T07:48:27;96076.10;;;2.97;39.13
49915;BME280;35806;47.958;13.158;2024-01-30T07:50:54;96079.86;;;3.26;38.98
49915;BME280;35806;47.958;13.158;2024-01-30T07:53:21;96078.82;;;3.62;39.13
49915;BME280;35806;47.958;13.158;2024-01-30T07:55:49;96078.75;;;3.57;38.08
49915;BME280;35806;47.958;13.158;2024-01-30T07:58:17;96081.89;;;3.98;36.84
49915;BME280;35806;47.958;13.158;2024-01-30T08:00:44;96082.34;;;3.87;37.25
49915;BME280;35806;47.958;13.158;2024-01-30T08:03:12;96081.33;;;4.24;36.66
49915;BME280;35806;47.958;13.158;2024-01-30T08:05:40;96082.40;;;4.50;36.46
49915;BME280;35806;47.958;13.158;2024-01-30T08:08:07;96081.49;;;4.81;36.03
49915;BME280;35806;47.958;13.158;2024-01-30T08:10:35;96083.80;;;4.49;35.40
49915;BME280;35806;47.958;13.158;2024-01-30T08:13:03;96084.78;;;4.89;35.44
49915;BME280;35806;47.958;13.158;2024-01-30T08:15:30;96088.40;;;4.91;35.09
49915;BME280;35806;47.958;13.158;2024-01-30T08:17:58;96087.47;;;5.51;34.06
49915;BME280;35806;47.958;13.158;2024-01-30T08:20:31;96085.72;;;5.22;34.65
49915;BME280;35806;47.958;13.158;2024-01-30T08:22:58;96086.22;;;5.01;34.80
49915;BME280;35806;47.958;13.158;2024-01-30T08:25:27;96088.04;;;5.27;35.51
49915;BME280;35806;47.958;13.158;2024-01-30T08:28:14;96088.83;;;6.47;34.55
49915;BME280;35806;47.958;13.158;2024-01-30T08:30:42;96090.56;;;4.14;36.75
49915;BME280;35806;47.958;13.158;2024-01-30T08:33:10;96087.74;;;5.72;35.52
49915;BME280;35806;47.958;13.158;2024-01-30T08:35:37;96088.26;;;5.20;34.40
49915;BME280;35806;47.958;13.158;2024-01-30T08:38:05;96091.98;;;5.75;34.10
49915;BME280;35806;47.958;13.158;2024-01-30T08:40:33;96093.78;;;6.83;30.31
49915;BME280;35806;47.958;13.158;2024-01-30T08:43:00;96092.89;;;6.26;30.82
49915;BME280;35806;47.958;13.158;2024-01-30T08:45:28;96089.67;;;6.09;30.92
49915;BME280;35806;47.958;13.158;2024-01-30T08:47:55;96089.23;;;7.33;29.25
49915;BME280;35806;47.958;13.158;2024-01-30T08:50:23;96086.16;;;6.84;29.89
49915;BME280;35806;47.958;13.158;2024-01-30T08:52:51;96085.92;;;6.84;29.42
49915;BME280;35806;47.958;13.158;2024-01-30T08:55:18;96088.00;;;6.94;29.47
49915;BME280;35806;47.958;13.158;2024-01-30T08:57:46;96092.26;;;6.99;29.81
49915;BME280;35806;47.958;13.158;2024-01-30T09:00:35;96090.25;;;7.58;29.63
49915;BME280;35806;47.958;13.158;2024-01-30T09:03:02;96091.04;;;6.99;29.41
49915;BME280;35806;47.958;13.158;2024-01-30T09:05:29;96090.90;;;6.97;29.44
49915;BME280;35806;47.958;13.158;2024-01-30T09:07:57;96088.46;;;7.61;28.63
49915;BME280;35806;47.958;13.158;2024-01-30T09:10:25;96093.36;;;8.16;28.18
49915;BME280;35806;47.958;13.158;2024-01-30T09:12:52;96093.53;;;7.66;28.72
49915;BME280;35806;47.958;13.158;2024-01-30T09:15:30;96095.21;;;7.86;29.02
49915;BME280;35806;47.958;13.158;2024-01-30T09:17:57;96093.10;;;8.22;28.67
49915;BME280;35806;47.958;13.158;2024-01-30T09:20:25;96095.51;;;8.67;28.11
49915;BME280;35806;47.958;13.158;2024-01-30T09:22:52;96090.93;;;8.89;27.91
49915;BME280;35806;47.958;13.158;2024-01-30T09:25:19;96093.73;;;9.50;26.29
49915;BME280;35806;47.958;13.158;2024-01-30T09:27:47;96099.71;;;8.64;27.33
49915;BME280;35806;47.958;13.158;2024-01-30T09:30:15;96097.92;;;8.77;27.44
49915;BME280;35806;47.958;13.158;2024-01-30T09:32:43;96095.24;;;8.95;27.41
49915;BME280;35806;47.958;13.158;2024-01-30T09:35:10;96101.05;;;8.38;27.40
49915;BME280;35806;47.958;13.158;2024-01-30T09:37:37;96098.97;;;8.91;27.52
49915;BME280;35806;47.958;13.158;2024-01-30T09:40:06;96096.78;;;8.66;27.59
49915;BME280;35806;47.958;13.158;2024-01-30T09:42:34;96101.41;;;8.62;28.18
49915;BME280;35806;47.958;13.158;2024-01-30T09:45:02;96099.25;;;8.85;27.09
49915;BME280;35806;47.958;13.158;2024-01-30T09:47:32;96100.02;;;8.86;27.30
49915;BME280;35806;47.958;13.158;2024-01-30T09:49:59;96102.44;;;9.21;26.69
49915;BME280;35806;47.958;13.158;2024-01-30T09:52:27;96103.69;;;8.92;26.52
49915;BME280;35806;47.958;13.158;2024-01-30T09:54:55;96105.32;;;9.23;25.21
49915;BME280;35806;47.958;13.158;2024-01-30T09:57:28;96106.15;;;10.06;24.98
49915;BME280;35806;47.958;13.158;2024-01-30T09:59:55;96107.20;;;9.92;25.04
49915;BME280;35806;47.958;13.158;2024-01-30T10:02:22;96101.80;;;10.06;24.91
49915;BME280;35806;47.958;13.158;2024-01-30T10:04:51;96102.15;;;9.89;24.96
49915;BME280;35806;47.958;13.158;2024-01-30T10:07:19;96098.49;;;10.14;25.33
49915;BME280;35806;47.958;13.158;2024-01-30T10:09:47;96097.93;;;10.26;25.50
49915;BME280;35806;47.958;13.158;2024-01-30T10:12:13;96097.44;;;10.18;25.18
49915;BME280;35806;47.958;13.158;2024-01-30T10:14:42;96100.62;;;9.88;25.16
49915;BME280;35806;47.958;13.158;2024-01-30T10:17:11;96095.19;;;10.54;23.97
49915;BME280;35806;47.958;13.158;2024-01-30T10:19:40;96094.32;;;10.10;24.30
49915;BME280;35806;47.958;13.158;2024-01-30T10:22:08;96095.02;;;10.18;24.63
49915;BME280;35806;47.958;13.158;2024-01-30T10:24:36;96091.07;;;10.28;24.85
49915;BME280;35806;47.958;13.158;2024-01-30T10:27:05;96091.26;;;10.42;23.53
49915;BME280;35806;47.958;13.158;2024-01-30T10:29:32;96087.52;;;11.40;23.35
49915;BME280;35806;47.958;13.158;2024-01-30T10:32:01;96085.05;;;11.22;22.85
49915;BME280;35806;47.958;13.158;2024-01-30T10:34:29;96082.35;;;11.10;23.79
49915;BME280;35806;47.958;13.158;2024-01-30T10:37:00;96079.31;;;12.27;22.84
49915;BME280;35806;47.958;13.158;2024-01-30T10:39:32;96073.92;;;11.27;23.04
49915;BME280;35806;47.958;13.158;2024-01-30T10:42:05;96067.72;;;12.00;23.24
49915;BME280;35806;47.958;13.158;2024-01-30T10:44:56;96064.08;;;11.35;23.63
49915;BME280;35806;47.958;13.158;2024-01-30T10:47:27;96064.06;;;11.18;23.72
49915;BME280;35806;47.958;13.158;2024-01-30T10:49:55;96062.61;;;11.12;23.23
49915;BME280;35806;47.958;13.158;2024-01-30T10:52:24;96058.82;;;12.14;22.41
49915;BME280;35806;47.958;13.158;2024-01-30T10:54:51;96057.46;;;12.33;22.83
49915;BME280;35806;47.958;13.158;2024-01-30T10:57:19;96059.20;;;12.23;22.82
49915;BME280;35806;47.958;13.158;2024-01-30T10:59:46;96059.14;;;11.08;23.34
49915;BME280;35806;47.958;13.158;2024-01-30T11:02:14;96055.32;;;11.23;23.49
49915;BME280;35806;47.958;13.158;2024-01-30T11:04:42;96056.33;;;10.77;24.01
49915;BME280;35806;47.958;13.158;2024-01-30T11:07:18;96050.50;;;11.55;23.87
49915;BME280;35806;47.958;13.158;2024-01-30T11:09:50;96046.94;;;11.57;23.60
49915;BME280;35806;47.958;13.158;2024-01-30T11:12:21;96044.63;;;12.82;23.09
49915;BME280;35806;47.958;13.158;2024-01-30T11:14:49;96043.74;;;12.24;23.79
49915;BME280;35806;47.958;13.158;2024-01-30T11:17:17;96038.30;;;12.83;23.39
49915;BME280;35806;47.958;13.158;2024-01-30T11:19:46;96037.96;;;12.75;25.70
49915;BME280;35806;47.958;13.158;2024-01-30T11:22:13;96036.56;;;12.52;26.86
49915;BME280;35806;47.958;13.158;2024-01-30T11:24:41;96036.97;;;11.61;28.84
49915;BME280;35806;47.958;13.158;2024-01-30T11:27:09;96031.44;;;12.33;28.21
49915;BME280;35806;47.958;13.158;2024-01-30T11:29:36;96029.28;;;12.11;28.70
49915;BME280;35806;47.958;13.158;2024-01-30T11:32:05;96028.72;;;12.21;28.77
49915;BME280;35806;47.958;13.158;2024-01-30T11:34:33;96027.00;;;10.59;31.83
49915;BME280;35806;47.958;13.158;2024-01-30T11:37:04;96023.33;;;12.01;30.38
49915;BME280;35806;47.958;13.158;2024-01-30T11:39:56;96024.65;;;13.11;29.79
49915;BME280;35806;47.958;13.158;2024-01-30T11:42:24;96020.48;;;12.42;29.57
49915;BME280;35806;47.958;13.158;2024-01-30T11:44:51;96019.40;;;12.54;29.31
49915;BME280;35806;47.958;13.158;2024-01-30T11:47:23;96015.77;;;12.12;29.80
49915;BME280;35806;47.958;13.158;2024-01-30T11:49:50;96013.00;;;12.48;29.30
49915;BME280;35806;47.958;13.158;2024-01-30T11:52:17;96006.83;;;12.68;28.89
49915;BME280;35806;47.958;13.158;2024-01-30T11:54:45;96004.50;;;12.26;28.73
49915;BME280;35806;47.958;13.158;2024-01-30T11:57:13;96001.96;;;12.53;28.93
49915;BME280;35806;47.958;13.158;2024-01-30T11:59:50;96003.38;;;13.68;27.37
49915;BME280;35806;47.958;13.158;2024-01-30T12:02:17;95999.27;;;16.04;25.70
49915;BME280;35806;47.958;13.158;2024-01-30T12:04:44;95995.16;;;16.75;24.72
49915;BME280;35806;47.958;13.158;2024-01-30T12:07:12;95990.91;;;17.49;23.49
49915;BME280;35806;47.958;13.158;2024-01-30T12:09:39;95992.22;;;17.52;23.76
49915;BME280;35806;47.958;13.158;2024-01-30T12:12:07;95989.81;;;18.97;22.71
49915;BME280;35806;47.958;13.158;2024-01-30T12:14:35;95988.21;;;19.07;20.98
49915;BME280;35806;47.958;13.158;2024-01-30T12:17:03;95984.36;;;19.70;20.34
49915;BME280;35806;47.958;13.158;2024-01-30T12:19:30;95984.68;;;19.22;20.45
49915;BME280;35806;47.958;13.158;2024-01-30T12:21:58;95982.74;;;19.32;19.67
49915;BME280;35806;47.958;13.158;2024-01-30T12:24:27;95982.98;;;19.77;19.95
49915;BME280;35806;47.958;13.158;2024-01-30T12:26:57;95977.41;;;20.23;19.99
49915;BME280;35806;47.958;13.158;2024-01-30T12:29:24;95976.27;;;20.46;19.24
49915;BME280;35806;47.958;13.158;2024-01-30T12:31:53;95978.04;;;20.88;18.52
49915;BME280;35806;47.958;13.158;2024-01-30T12:34:20;95974.21;;;21.26;18.16
49915;BME280;35806;47.958;13.158;2024-01-30T12:36:48;95973.96;;;21.14;17.59
49915;BME280;35806;47.958;13.158;2024-01-30T12:39:15;95972.90;;;21.34;17.68
49915;BME280;35806;47.958;13.158;2024-01-30T12:41:43;95972.14;;;20.82;17.38
49915;BME280;35806;47.958;13.158;2024-01-30T12:44:10;95973.78;;;20.87;17.87
49915;BME280;35806;47.958;13.158;2024-01-30T12:46:38;95970.76;;;20.77;18.65
49915;BME280;35806;47.958;13.158;2024-01-30T12:49:06;95971.51;;;20.99;18.55
49915;BME280;35806;47.958;13.158;2024-01-30T12:51:34;95970.06;;;20.61;18.30
49915;BME280;35806;47.958;13.158;2024-01-30T12:54:05;95967.33;;;20.15;18.39
49915;BME280;35806;47.958;13.158;2024-01-30T12:56:33;95962.98;;;20.93;18.30
49915;BME280;35806;47.958;13.158;2024-01-30T12:59:00;95961.86;;;20.72;18.56
49915;BME280;35806;47.958;13.158;2024-01-30T13:01:28;95963.44;;;20.56;18.58